Time;durP1;ratioP1;P1;durP2;ratioP2;P2;SDS_P1;SDS_P2;PMS_P1;PMS_P2;Temp;Humidity;BMP_temperature;BMP_pressure;BME280_temperature;BME280_humidity;BME280_pressure;Samples;Min_cycle;Max_cycle;Signal;HPM_P1;HPM_P2
2023/11/11 00:02:24;;;;;;;10.65;7.43;;;;;;;9.92;65.66;94049.41;5024914;28;20029;-78
2023/11/11 00:04:50;;;;;;;9.98;7.20;;;;;;;9.91;65.64;94044.34;5014280;28;20057;-75
2023/11/11 00:07:15;;;;;;;11.68;7.45;;;;;;;9.89;65.89;94057.75;5038756;28;20062;-77
2023/11/11 00:09:41;;;;;;;10.02;7.43;;;;;;;9.88;65.62;94045.25;5014126;28;20143;-77
2023/11/11 00:12:07;;;;;;;9.95;7.32;;;;;;;9.91;65.47;94041.59;5026770;28;20535;-77
2023/11/11 00:14:34;;;;;;;9.43;7.25;;;;;;;9.93;65.75;94042.69;5008938;28;20026;-77
2023/11/11 00:17:00;;;;;;;10.23;7.53;;;;;;;9.95;65.70;94029.25;5006479;28;20057;-76
2023/11/11 00:19:25;;;;;;;10.20;6.78;;;;;;;9.91;65.98;94030.59;5034443;28;20077;-77
2023/11/11 00:21:53;;;;;;;11.18;8.13;;;;;;;9.99;65.58;94018.91;5007673;28;20026;-77
2023/11/11 00:24:19;;;;;;;10.23;7.65;;;;;;;9.93;65.86;94006.22;5020365;28;20032;-76
2023/11/11 00:26:44;;;;;;;9.60;6.78;;;;;;;9.96;65.94;94022.53;5007700;28;20030;-76
2023/11/11 00:29:10;;;;;;;10.38;7.45;;;;;;;9.99;65.77;94013.41;5022117;28;20032;-76
2023/11/11 00:31:36;;;;;;;8.95;7.00;;;;;;;10.04;65.82;94009.31;5006404;28;20053;-76
2023/11/11 00:34:02;;;;;;;7.82;6.43;;;;;;;10.05;65.73;94011.59;5016884;28;20607;-78
2023/11/11 00:36:27;;;;;;;10.15;7.32;;;;;;;10.05;65.69;94003.34;5009656;28;20493;-78
2023/11/11 00:38:53;;;;;;;9.80;7.20;;;;;;;10.06;65.42;94004.88;5016152;28;20037;-77
2023/11/11 00:41:19;;;;;;;8.57;6.43;;;;;;;10.08;65.13;93993.41;5041094;28;20099;-77
2023/11/11 00:43:44;;;;;;;7.72;5.40;;;;;;;10.05;64.95;94005.31;5032532;28;20061;-77
2023/11/11 00:46:09;;;;;;;7.90;5.60;;;;;;;9.99;64.88;94005.16;5039560;28;20057;-77
2023/11/11 00:48:37;;;;;;;7.30;5.22;;;;;;;10.00;64.41;94023.16;5023311;28;20033;-77
2023/11/11 00:51:02;;;;;;;9.80;5.55;;;;;;;9.95;64.87;94020.25;5035505;28;20034;-76
2023/11/11 00:53:28;;;;;;;7.03;5.30;;;;;;;9.92;65.16;94004.69;5014402;28;20492;-75
2023/11/11 00:55:53;;;;;;;8.15;5.40;;;;;;;9.95;64.95;93998.28;5038424;28;20025;-74
2023/11/11 00:58:21;;;;;;;6.97;5.03;;;;;;;9.96;65.08;94003.31;5023120;28;20511;-76
2023/11/11 01:00:47;;;;;;;7.95;4.90;;;;;;;10.01;64.77;93972.53;5015858;28;20036;-76
2023/11/11 01:03:12;;;;;;;5.72;4.43;;;;;;;9.98;64.48;93987.19;5010248;28;20021;-76
2023/11/11 01:05:38;;;;;;;6.55;4.70;;;;;;;9.97;64.96;94017.81;5005142;28;20091;-76
2023/11/11 01:08:04;;;;;;;7.05;4.88;;;;;;;9.95;65.10;93995.53;5006529;28;20026;-75
2023/11/11 01:10:34;;;;;;;7.35;4.90;;;;;;;9.95;65.38;93995.53;5005292;28;20053;-76
2023/11/11 01:13:00;;;;;;;7.32;4.90;;;;;;;9.97;65.10;94001.34;5006546;28;20575;-75
2023/11/11 01:15:26;;;;;;;6.57;5.22;;;;;;;9.90;65.38;94002.41;5020171;28;20492;-74
2023/11/11 01:17:53;;;;;;;6.80;4.68;;;;;;;9.95;65.45;93999.06;5013546;28;20044;-75
2023/11/11 01:20:18;;;;;;;8.10;5.00;;;;;;;9.95;65.54;93999.06;5021010;28;20072;-75
2023/11/11 01:22:44;;;;;;;7.78;5.10;;;;;;;9.93;65.68;93985.03;5023733;28;20029;-74
2023/11/11 01:25:09;;;;;;;6.00;4.68;;;;;;;10.01;65.33;93982.75;5008210;28;20445;-74
2023/11/11 01:27:36;;;;;;;5.68;4.07;;;;;;;10.02;65.66;93992.50;5023603;28;20046;-76
2023/11/11 01:30:02;;;;;;;5.25;4.22;;;;;;;9.97;65.77;93971.13;5025753;28;20114;-76
2023/11/11 01:32:28;;;;;;;5.55;4.15;;;;;;;9.97;65.82;93969.16;5025206;28;20024;-76
2023/11/11 01:34:53;;;;;;;4.65;3.55;;;;;;;10.06;65.73;93965.66;5028014;28;20395;-76
2023/11/11 01:37:19;;;;;;;6.97;4.03;;;;;;;10.06;65.50;93966.41;5022828;28;20032;-76
2023/11/11 01:39:45;;;;;;;4.20;3.80;;;;;;;10.14;65.47;93957.88;5046596;28;20025;-74
2023/11/11 01:42:12;;;;;;;5.22;3.47;;;;;;;10.16;65.47;93972.69;5031553;28;20021;-75
2023/11/11 01:44:37;;;;;;;5.90;3.55;;;;;;;10.17;65.58;93974.22;5031206;28;20120;-75
2023/11/11 01:47:06;;;;;;;4.82;3.47;;;;;;;10.18;65.22;93953.75;5031966;28;20025;-75
2023/11/11 01:49:33;;;;;;;4.70;3.28;;;;;;;10.23;65.51;93968.88;5030634;28;20033;-75
2023/11/11 01:51:58;;;;;;;5.32;2.92;;;;;;;10.26;65.45;93946.00;5030079;28;20040;-75
2023/11/11 01:54:24;;;;;;;4.10;3.53;;;;;;;10.34;65.21;93947.22;5040602;28;20030;-75
2023/11/11 01:56:50;;;;;;;5.28;3.50;;;;;;;10.35;65.02;93937.75;5046588;28;20021;-75
2023/11/11 01:59:17;;;;;;;5.00;3.58;;;;;;;10.43;64.99;93949.19;5049639;28;20029;-76
2023/11/11 02:01:45;;;;;;;4.60;3.10;;;;;;;10.45;64.83;93949.50;5054204;28;20025;-76
2023/11/11 02:04:10;;;;;;;4.38;3.20;;;;;;;10.49;64.72;93952.84;5047637;28;20411;-76
2023/11/11 02:06:36;;;;;;;4.60;3.05;;;;;;;10.52;64.54;93952.69;5046052;28;20030;-77
2023/11/11 02:09:03;;;;;;;4.68;3.60;;;;;;;10.56;64.53;93942.31;5020967;28;20029;-76
2023/11/11 02:11:28;;;;;;;4.80;3.25;;;;;;;10.57;64.42;93945.84;5010106;28;20129;-77
2023/11/11 02:13:54;;;;;;;5.00;3.45;;;;;;;10.67;64.26;93955.59;5044305;28;20521;-77
2023/11/11 02:16:19;;;;;;;4.32;3.00;;;;;;;10.69;63.98;93944.13;5045779;28;20408;-77
2023/11/11 02:18:45;;;;;;;3.75;2.92;;;;;;;10.64;64.11;93935.28;5029210;28;20032;-77
2023/11/11 02:21:11;;;;;;;4.60;3.63;;;;;;;10.64;63.99;93932.53;5028604;28;20474;-77
2023/11/11 02:23:37;;;;;;;3.67;3.00;;;;;;;10.64;63.85;93932.53;5019144;28;20034;-76
2023/11/11 02:26:03;;;;;;;3.40;2.88;;;;;;;10.64;64.08;93920.78;5025373;28;20085;-77
2023/11/11 02:28:29;;;;;;;4.68;3.13;;;;;;;10.64;63.72;93927.03;5029034;28;20492;-77
2023/11/11 02:30:55;;;;;;;4.05;3.20;;;;;;;10.64;63.82;93918.03;5030158;28;20030;-77
2023/11/11 02:33:20;;;;;;;3.55;2.80;;;;;;;10.69;63.85;93917.41;5010219;28;20412;-77
2023/11/11 02:35:46;;;;;;;4.85;2.80;;;;;;;10.70;63.67;93916.19;5045912;28;20040;-77
2023/11/11 02:38:14;;;;;;;3.92;3.08;;;;;;;10.68;63.61;93913.13;5016547;28;20389;-77
2023/11/11 02:40:40;;;;;;;3.65;3.00;;;;;;;10.70;63.57;93907.94;5016697;28;20124;-76
2023/11/11 02:43:05;;;;;;;3.92;2.88;;;;;;;10.76;63.70;93914.31;5018351;28;20037;-77
2023/11/11 02:45:32;;;;;;;6.57;3.47;;;;;;;10.78;63.53;93897.34;5028418;28;20033;-76
2023/11/11 02:47:58;;;;;;;4.43;3.63;;;;;;;10.80;63.47;93900.44;5028515;28;20180;-77
2023/11/11 02:50:23;;;;;;;5.28;3.80;;;;;;;10.88;63.08;93916.13;5018385;28;20540;-76
2023/11/11 02:52:49;;;;;;;5.72;3.35;;;;;;;10.86;62.97;93920.56;5007251;28;20156;-77
2023/11/11 02:55:15;;;;;;;4.32;3.53;;;;;;;10.78;63.21;93922.88;5040297;28;20132;-76
2023/11/11 02:57:42;;;;;;;5.95;3.38;;;;;;;10.83;63.11;93930.50;5024690;28;20040;-77
2023/11/11 03:00:10;;;;;;;4.15;3.03;;;;;;;10.76;63.17;93935.56;5039536;28;20113;-77
2023/11/11 03:02:37;;;;;;;5.38;3.53;;;;;;;10.68;63.26;93937.13;5038540;28;20033;-77
2023/11/11 03:05:03;;;;;;;5.75;3.40;;;;;;;10.70;63.13;93946.41;5013660;28;20425;-77
2023/11/11 03:07:28;;;;;;;4.78;3.55;;;;;;;10.70;63.11;93940.91;5009188;28;20033;-76
2023/11/11 03:09:53;;;;;;;6.65;3.65;;;;;;;10.67;63.07;93932.81;5010057;28;20033;-77
2023/11/11 03:12:19;;;;;;;6.18;4.22;;;;;;;10.57;63.54;93932.09;5017079;28;20684;-77
2023/11/11 03:14:44;;;;;;;5.82;3.90;;;;;;;10.59;63.74;93935.13;5019165;28;20033;-77
2023/11/11 03:17:10;;;;;;;7.00;3.92;;;;;;;10.52;63.67;93941.72;5025838;28;20150;-76
2023/11/11 03:19:35;;;;;;;6.63;4.05;;;;;;;10.52;63.80;93946.44;5024108;28;20048;-76
2023/11/11 03:22:01;;;;;;;6.55;4.10;;;;;;;10.53;63.80;93936.97;5012726;28;20037;-77
2023/11/11 03:24:27;;;;;;;5.40;3.88;;;;;;;10.60;63.85;93926.41;5026310;28;20026;-77
2023/11/11 03:26:53;;;;;;;6.15;4.13;;;;;;;10.55;64.28;93913.31;5043012;28;20447;-77
2023/11/11 03:29:18;;;;;;;5.57;4.43;;;;;;;10.50;64.50;93918.69;5027146;28;20041;-77
2023/11/11 03:31:44;;;;;;;6.97;4.25;;;;;;;10.49;64.91;93906.13;5025408;28;20021;-76
2023/11/11 03:34:09;;;;;;;5.15;4.25;;;;;;;10.49;65.19;93915.13;5019568;28;20544;-77
2023/11/11 03:36:34;;;;;;;6.13;4.10;;;;;;;10.49;65.44;93911.63;5013293;28;20525;-77
2023/11/11 03:39:00;;;;;;;6.47;4.45;;;;;;;10.47;65.10;93892.88;5021858;28;20095;-77
2023/11/11 03:41:25;;;;;;;7.10;4.80;;;;;;;10.53;64.90;93904.00;5038103;28;20535;-76
2023/11/11 03:43:50;;;;;;;7.90;5.15;;;;;;;10.47;64.63;93894.84;5011643;28;20030;-76
2023/11/11 03:46:16;;;;;;;6.95;4.85;;;;;;;10.42;65.01;93898.97;5026804;28;20037;-77
2023/11/11 03:48:42;;;;;;;7.03;5.18;;;;;;;10.48;64.79;93890.88;5015293;28;20030;-77
2023/11/11 03:51:08;;;;;;;8.55;5.95;;;;;;;10.40;65.11;93889.69;5007261;28;20064;-76
2023/11/11 03:53:33;;;;;;;8.23;5.38;;;;;;;10.45;65.01;93886.31;5042284;28;20454;-77
2023/11/11 03:56:03;;;;;;;8.02;5.22;;;;;;;10.36;65.25;93895.34;5022286;28;20428;-77
2023/11/11 03:58:29;;;;;;;8.32;5.30;;;;;;;10.40;64.82;93900.69;5016072;28;20021;-77
2023/11/11 04:00:54;;;;;;;9.07;6.18;;;;;;;10.40;64.76;93912.44;5014080;28;20071;-77
2023/11/11 04:03:20;;;;;;;6.55;5.53;;;;;;;10.39;64.58;93890.91;5018941;28;20030;-76
2023/11/11 04:05:46;;;;;;;7.63;5.97;;;;;;;10.37;64.55;93916.84;5041186;28;20034;-77
2023/11/11 04:08:13;;;;;;;11.40;5.75;;;;;;;10.41;64.25;93929.66;5011258;28;20519;-76
2023/11/11 04:10:38;;;;;;;7.55;5.78;;;;;;;10.30;64.08;93913.66;5026574;28;20109;-76
2023/11/11 04:13:05;;;;;;;7.82;5.40;;;;;;;10.31;64.29;93923.41;5015280;28;20029;-77
2023/11/11 04:15:31;;;;;;;8.55;5.72;;;;;;;10.35;64.26;93910.28;5007590;28;20030;-77
2023/11/11 04:17:57;;;;;;;7.85;5.32;;;;;;;10.41;63.98;93902.94;5016573;28;20408;-77
2023/11/11 04:20:22;;;;;;;7.90;5.35;;;;;;;10.30;64.14;93851.22;5025504;28;20530;-76
2023/11/11 04:22:48;;;;;;;8.07;5.82;;;;;;;10.30;63.83;93859.47;5030868;28;20405;-76
2023/11/11 04:25:13;;;;;;;8.70;6.03;;;;;;;10.22;64.12;93862.97;5006421;28;20022;-76
2023/11/11 04:27:42;;;;;;;7.55;5.78;;;;;;;10.21;64.39;93837.50;5007309;28;20361;-76
2023/11/11 04:30:07;;;;;;;7.90;6.50;;;;;;;10.15;64.64;93852.28;5006857;28;20053;-76
2023/11/11 04:32:34;;;;;;;8.70;6.03;;;;;;;10.20;64.58;93849.69;5010042;28;20021;-76
2023/11/11 04:34:59;;;;;;;11.25;6.00;;;;;;;10.15;64.64;93852.28;5023426;28;20524;-76
2023/11/11 04:37:25;;;;;;;7.28;6.00;;;;;;;10.08;64.71;93861.63;5024380;28;20026;-76
2023/11/11 04:39:50;;;;;;;8.43;6.32;;;;;;;10.07;64.64;93841.63;5026221;28;20026;-76
2023/11/11 04:42:16;;;;;;;7.43;5.72;;;;;;;10.21;64.68;93862.22;5040658;28;20021;-76
2023/11/11 04:44:42;;;;;;;7.72;6.00;;;;;;;10.23;64.67;93870.00;5011559;28;20066;-76
2023/11/11 04:47:08;;;;;;;6.10;5.25;;;;;;;10.24;64.52;93860.56;5005851;28;20117;-76
2023/11/11 04:49:33;;;;;;;5.75;5.13;;;;;;;10.24;64.59;93861.31;5006880;28;20109;-76
2023/11/11 04:51:59;;;;;;;7.90;5.00;;;;;;;10.28;64.51;93864.69;5016948;28;20040;-76
2023/11/11 04:54:24;;;;;;;7.97;5.60;;;;;;;10.28;64.52;93869.41;5014538;28;20036;-76
2023/11/11 04:56:50;;;;;;;6.50;5.15;;;;;;;10.25;64.70;93862.84;5025997;28;20029;-76
2023/11/11 04:59:15;;;;;;;7.45;5.20;;;;;;;10.40;64.17;93889.69;5014021;28;20072;-76
2023/11/11 05:01:40;;;;;;;6.38;5.10;;;;;;;10.37;64.11;93877.63;5022377;28;20419;-77
2023/11/11 05:04:06;;;;;;;7.70;4.85;;;;;;;10.43;64.15;93889.50;5039073;28;20021;-76
2023/11/11 05:06:31;;;;;;;6.65;4.82;;;;;;;10.47;63.90;93870.88;5036095;28;20031;-77
2023/11/11 05:08:57;;;;;;;8.05;5.10;;;;;;;10.42;64.25;93866.00;5031853;28;20026;-76
2023/11/11 05:11:22;;;;;;;7.88;5.50;;;;;;;10.47;63.99;93857.16;5016498;28;20579;-77
2023/11/11 05:13:48;;;;;;;9.63;5.45;;;;;;;10.43;64.51;93844.78;5025838;28;20496;-77
2023/11/11 05:16:24;;;;;;;10.43;6.05;;;;;;;10.42;64.66;93840.53;5010372;28;20506;-76
2023/11/11 05:18:51;;;;;;;6.97;5.03;;;;;;;10.43;64.83;93836.53;5008046;28;20084;-77
2023/11/11 05:21:16;;;;;;;6.68;5.65;;;;;;;10.33;64.90;93830.34;5005193;28;20046;-76
2023/11/11 05:23:41;;;;;;;7.80;6.25;;;;;;;10.24;65.68;93838.59;5006130;28;20112;-76
2023/11/11 05:26:07;;;;;;;7.10;5.88;;;;;;;10.26;65.88;93819.66;5005366;28;20046;-76
2023/11/11 05:28:32;;;;;;;7.25;6.13;;;;;;;10.23;65.96;93818.59;5021840;28;20025;-76
2023/11/11 05:30:58;;;;;;;8.43;6.03;;;;;;;10.27;66.46;93826.69;5020857;28;20040;-76
2023/11/11 05:33:24;;;;;;;7.55;6.43;;;;;;;10.21;66.62;93839.50;5005839;28;20612;-77
2023/11/11 05:35:49;;;;;;;9.10;6.53;;;;;;;10.21;66.73;93812.03;5008354;28;20157;-77
2023/11/11 05:38:15;;;;;;;9.18;7.07;;;;;;;10.22;66.98;93817.06;5006478;28;20025;-76
2023/11/11 05:40:41;;;;;;;7.10;6.05;;;;;;;10.20;67.08;93813.97;5038297;28;20380;-77
2023/11/11 05:43:07;;;;;;;8.95;7.45;;;;;;;10.22;66.97;93810.81;5008379;28;20492;-77
2023/11/11 05:45:33;;;;;;;10.35;7.43;;;;;;;10.24;66.96;93811.13;5024156;28;20428;-77
2023/11/11 05:47:58;;;;;;;10.80;7.90;;;;;;;10.33;66.52;93811.88;5028761;28;20484;-76
2023/11/11 05:50:24;;;;;;;9.63;6.97;;;;;;;10.26;66.72;93817.66;5005782;28;20099;-76
2023/11/11 05:52:49;;;;;;;11.10;7.75;;;;;;;10.27;66.99;93823.94;5019496;28;20029;-76
2023/11/11 05:55:15;;;;;;;11.45;7.63;;;;;;;10.27;67.01;93810.97;5021812;28;20038;-76
2023/11/11 05:57:41;;;;;;;9.05;7.13;;;;;;;10.32;66.97;93835.06;5025336;28;20114;-77
2023/11/11 06:00:11;;;;;;;9.63;6.97;;;;;;;10.23;67.34;93837.81;5033840;28;20534;-76
2023/11/11 06:02:37;;;;;;;8.95;6.97;;;;;;;10.30;67.42;93834.75;5006730;28;20029;-76
2023/11/11 06:05:03;;;;;;;8.50;7.47;;;;;;;10.21;67.76;93828.50;5031112;28;20157;-77
2023/11/11 06:07:29;;;;;;;9.20;7.00;;;;;;;10.18;67.90;93837.66;5025868;28;20104;-76
2023/11/11 06:09:54;;;;;;;10.05;7.63;;;;;;;10.17;68.29;93844.38;5005209;28;20022;-76
2023/11/11 06:12:19;;;;;;;9.68;8.50;;;;;;;10.11;68.23;93842.25;5022739;28;20037;-76
2023/11/11 06:14:45;;;;;;;10.52;8.02;;;;;;;10.22;67.95;93836.28;5013846;28;20030;-76
2023/11/11 06:17:11;;;;;;;9.82;7.63;;;;;;;10.20;68.24;93843.44;5020869;28;20325;-76
2023/11/11 06:19:36;;;;;;;9.50;8.00;;;;;;;10.15;68.27;93819.34;5039378;28;20519;-76
2023/11/11 06:22:04;;;;;;;10.93;7.30;;;;;;;10.11;68.64;93816.78;5014785;28;20032;-76
2023/11/11 06:24:31;;;;;;;8.02;7.03;;;;;;;10.19;68.76;93826.19;5043201;28;20018;-76
2023/11/11 06:26:57;;;;;;;8.88;7.68;;;;;;;10.26;68.60;93805.91;5009879;28;20033;-76
2023/11/11 06:29:22;;;;;;;10.85;7.95;;;;;;;10.29;68.54;93827.75;5014821;28;20038;-75
2023/11/11 06:31:48;;;;;;;11.55;8.52;;;;;;;10.30;68.52;93812.03;5014823;28;20594;-77
2023/11/11 06:34:13;;;;;;;11.85;7.85;;;;;;;10.29;68.51;93813.25;5009585;28;20088;-75
2023/11/11 06:36:39;;;;;;;8.80;6.75;;;;;;;10.28;68.32;93819.97;5043179;28;20044;-75
2023/11/11 06:39:04;;;;;;;9.57;7.72;;;;;;;10.33;68.28;93835.84;5020156;28;20147;-75
2023/11/11 06:41:30;;;;;;;10.95;7.88;;;;;;;10.37;68.15;93850.91;5027359;28;20025;-74
2023/11/11 06:43:55;;;;;;;11.65;8.02;;;;;;;10.33;68.14;93828.34;5025240;28;20030;-74
2023/11/11 06:46:22;;;;;;;12.68;8.02;;;;;;;10.34;68.30;93829.88;5027253;28;20047;-76
2023/11/11 06:48:47;;;;;;;10.23;8.63;;;;;;;10.31;68.51;93819.78;5024250;28;20029;-76
2023/11/11 06:51:13;;;;;;;11.75;8.25;;;;;;;10.33;68.63;93805.63;5028059;28;20086;-77
2023/11/11 06:53:39;;;;;;;11.32;7.93;;;;;;;10.34;68.83;93793.41;5048539;28;20031;-77
2023/11/11 06:56:05;;;;;;;11.02;8.10;;;;;;;10.39;68.62;93770.78;5031634;28;20143;-76
2023/11/11 06:58:31;;;;;;;9.60;8.30;;;;;;;10.37;68.84;93746.50;5028662;28;20514;-77
2023/11/11 07:00:58;;;;;;;10.45;8.70;;;;;;;10.41;68.56;93776.56;5043859;28;20021;-78
2023/11/11 07:03:24;;;;;;;10.35;8.23;;;;;;;10.43;68.54;93806.31;5028496;28;20025;-77
2023/11/11 07:05:51;;;;;;;12.30;9.40;;;;;;;10.45;68.55;93799.16;5028353;28;20018;-76
2023/11/11 07:08:17;;;;;;;11.73;9.43;;;;;;;10.47;68.01;93824.19;5031690;28;20013;-78
2023/11/11 07:10:42;;;;;;;10.40;7.68;;;;;;;10.44;67.89;93830.63;5007767;28;20049;-77
2023/11/11 07:13:07;;;;;;;13.57;8.30;;;;;;;10.26;68.65;93858.88;5021334;28;20475;-77
2023/11/11 07:15:36;;;;;;;11.13;8.32;;;;;;;10.20;68.66;93813.97;5028120;28;20029;-77
2023/11/11 07:18:03;;;;;;;13.68;9.05;;;;;;;10.27;68.77;93782.75;5042611;28;20125;-77
2023/11/11 07:20:29;;;;;;;11.50;8.15;;;;;;;10.33;68.51;93781.66;5027681;28;20049;-76
2023/11/11 07:22:55;;;;;;;10.65;8.60;;;;;;;10.33;68.73;93784.41;5014353;28;20096;-77
2023/11/11 07:25:24;;;;;;;11.90;9.27;;;;;;;10.46;68.48;93761.44;5006905;28;20540;-74
2023/11/11 07:27:50;;;;;;;10.55;8.40;;;;;;;10.45;68.26;93757.94;5007872;28;20120;-75
2023/11/11 07:30:15;;;;;;;10.93;8.45;;;;;;;10.54;67.92;93779.13;5026269;28;20034;-76
2023/11/11 07:32:40;;;;;;;11.52;8.10;;;;;;;10.56;67.53;93766.44;5042636;28;20018;-75
2023/11/11 07:35:12;;;;;;;11.30;8.40;;;;;;;10.61;67.14;93785.06;5022849;28;20044;-76
2023/11/11 07:37:39;;;;;;;14.60;9.18;;;;;;;10.60;67.29;93774.50;5032932;28;20091;-76
2023/11/11 07:40:05;;;;;;;11.18;8.20;;;;;;;10.62;67.33;93770.09;5047313;28;20032;-76
2023/11/11 07:42:32;;;;;;;9.80;7.57;;;;;;;10.63;67.03;93765.34;5024142;28;20117;-76
2023/11/11 07:44:58;;;;;;;9.30;7.07;;;;;;;10.59;67.09;93770.25;5025384;28;20037;-76
2023/11/11 07:47:24;;;;;;;10.85;7.85;;;;;;;10.63;67.34;93765.34;5042790;28;20087;-76
2023/11/11 07:49:50;;;;;;;16.33;11.10;;;;;;;10.69;67.23;93762.72;5010125;28;20025;-76
2023/11/11 07:52:15;;;;;;;16.40;10.80;;;;;;;10.77;67.53;93764.66;5041736;28;20472;-76
2023/11/11 07:54:41;;;;;;;13.30;9.45;;;;;;;10.86;67.29;93753.63;5046069;28;20553;-76
2023/11/11 07:57:07;;;;;;;11.63;9.25;;;;;;;10.97;67.06;93735.84;5043642;28;20022;-77
2023/11/11 07:59:36;;;;;;;12.85;8.50;;;;;;;11.04;66.69;93727.22;5027209;28;20126;-77
2023/11/11 08:02:02;;;;;;;14.25;10.10;;;;;;;11.15;66.21;93743.97;5014881;28;20030;-77
2023/11/11 08:04:27;;;;;;;13.90;10.02;;;;;;;11.30;65.96;93752.28;5008596;28;20523;-77
2023/11/11 08:06:52;;;;;;;14.50;10.05;;;;;;;11.36;64.64;93734.66;5007263;28;20026;-77
2023/11/11 08:09:18;;;;;;;14.30;8.88;;;;;;;11.36;64.64;93733.88;5008910;28;20514;-77
2023/11/11 08:11:44;;;;;;;11.10;9.25;;;;;;;11.37;64.40;93749.91;5033389;28;20830;-75
2023/11/11 08:14:10;;;;;;;16.67;10.20;;;;;;;11.43;64.77;93758.28;5007162;28;20093;-75
2023/11/11 08:16:36;;;;;;;13.85;10.48;;;;;;;11.51;64.60;93742.91;5024141;28;20055;-75
2023/11/11 08:19:01;;;;;;;17.20;11.23;;;;;;;11.52;64.52;93738.94;5022892;28;20104;-74
2023/11/11 08:21:31;;;;;;;12.93;10.13;;;;;;;11.56;64.67;93749.75;5005874;28;20029;-76
2023/11/11 08:24:00;;;;;;;16.05;9.77;;;;;;;11.62;64.33;93748.63;5006791;28;20036;-76
2023/11/11 08:26:26;;;;;;;12.60;8.65;;;;;;;11.75;63.67;93729.09;5019830;28;20044;-75
2023/11/11 08:28:52;;;;;;;10.18;7.07;;;;;;;11.92;62.22;93740.44;5045498;28;20037;-75
2023/11/11 08:31:17;;;;;;;11.20;6.32;;;;;;;11.98;61.80;93744.03;5061447;28;20036;-76
2023/11/11 08:33:43;;;;;;;11.40;8.25;;;;;;;12.17;62.08;93739.88;5061800;28;20134;-75
2023/11/11 08:36:09;;;;;;;13.98;8.88;;;;;;;12.27;62.04;93737.75;5044869;28;20380;-75
2023/11/11 08:38:35;;;;;;;15.25;9.85;;;;;;;12.36;61.91;93712.84;5006979;28;20017;-76
2023/11/11 08:41:01;;;;;;;12.00;9.27;;;;;;;12.60;61.24;93711.94;5007108;28;20041;-75
2023/11/11 08:43:27;;;;;;;11.07;8.32;;;;;;;13.32;59.96;93709.41;5037606;28;20026;-76
2023/11/11 08:45:53;;;;;;;16.50;11.60;;;;;;;13.23;59.67;93712.31;5006353;28;20025;-75
2023/11/11 08:48:18;;;;;;;14.02;10.32;;;;;;;13.29;59.29;93733.22;5013941;28;20612;-76
2023/11/11 08:50:43;;;;;;;14.85;10.45;;;;;;;13.26;59.40;93730.69;5024750;28;20049;-76
2023/11/11 08:53:10;;;;;;;37.10;25.25;;;;;;;13.27;59.09;93712.88;5025890;28;20029;-75
2023/11/11 08:55:35;;;;;;;21.33;13.52;;;;;;;13.22;59.25;93717.06;5032993;28;20556;-75
2023/11/11 08:58:01;;;;;;;15.70;10.90;;;;;;;13.19;59.09;93706.22;5040558;28;20052;-76
2023/11/11 09:00:26;;;;;;;19.73;14.18;;;;;;;13.26;59.46;93712.13;5025688;28;20028;-76
2023/11/11 09:02:52;;;;;;;21.08;13.75;;;;;;;13.35;58.81;93713.97;5006309;28;20030;-78
2023/11/11 09:05:20;;;;;;;19.23;13.05;;;;;;;13.33;58.44;93715.69;5006423;28;20022;-77
2023/11/11 09:07:46;;;;;;;11.20;9.13;;;;;;;13.74;57.76;93702.59;5041221;28;20063;-76
2023/11/11 09:10:12;;;;;;;9.68;7.53;;;;;;;13.79;57.33;93699.13;5024005;28;20065;-76
2023/11/11 09:12:37;;;;;;;13.52;7.90;;;;;;;13.95;56.83;93689.47;5007957;28;20468;-77
2023/11/11 09:15:05;;;;;;;9.82;7.53;;;;;;;14.24;56.34;93685.72;5009691;28;20508;-76
2023/11/11 09:17:31;;;;;;;11.63;8.57;;;;;;;14.84;55.33;93692.91;5026233;28;20033;-76
2023/11/11 09:19:57;;;;;;;10.25;7.95;;;;;;;15.16;54.22;93692.09;5024933;28;20045;-75
2023/11/11 09:22:25;;;;;;;12.70;8.63;;;;;;;15.04;54.37;93674.66;5021339;28;20013;-76
2023/11/11 09:24:51;;;;;;;11.23;7.50;;;;;;;15.01;54.28;93681.94;5025954;28;20029;-76
2023/11/11 09:27:17;;;;;;;21.30;13.93;;;;;;;15.06;53.73;93670.13;5025888;28;20029;-77
2023/11/11 09:29:43;;;;;;;24.08;14.50;;;;;;;15.10;53.70;93687.28;5041213;28;20036;-77
2023/11/11 09:32:11;;;;;;;22.92;14.38;;;;;;;15.24;54.01;93670.97;5025151;28;20029;-77
2023/11/11 09:34:37;;;;;;;15.15;11.05;;;;;;;16.94;50.06;93672.13;5029951;28;20037;-76
2023/11/11 09:37:02;;;;;;;11.05;7.85;;;;;;;18.55;46.54;93663.41;5023786;28;20037;-77
2023/11/11 09:39:29;;;;;;;7.47;6.25;;;;;;;20.36;42.41;93666.31;5041019;28;20040;-76
2023/11/11 09:41:55;;;;;;;10.05;7.00;;;;;;;21.39;40.17;93658.41;5023903;28;20041;-75
2023/11/11 09:44:22;;;;;;;10.18;7.05;;;;;;;23.14;36.65;93659.50;5040625;28;20519;-75
2023/11/11 09:46:55;;;;;;;8.02;5.72;;;;;;;24.49;33.59;93661.25;5025874;28;20021;-77
2023/11/11 09:49:20;;;;;;;7.53;4.82;;;;;;;25.47;31.70;93639.31;5023609;28;20519;-76
2023/11/11 09:51:49;;;;;;;7.38;5.22;;;;;;;26.62;29.61;93634.69;5022841;28;20033;-76
2023/11/11 09:54:15;;;;;;;10.45;6.55;;;;;;;28.07;27.39;93629.75;5005192;28;20489;-76
2023/11/11 09:56:42;;;;;;;4.82;3.10;;;;;;;28.10;26.03;93620.13;5041306;28;20030;-78
2023/11/11 09:59:10;;;;;;;4.53;3.50;;;;;;;27.86;26.77;93626.59;5012739;28;20025;-77
2023/11/11 10:01:37;;;;;;;0.90;0.65;;;;;;;27.29;25.48;93622.69;5039454;28;20026;-76
2023/11/11 10:04:03;;;;;;;1.35;0.63;;;;;;;26.95;25.80;93628.97;5041210;28;20034;-76
2023/11/11 10:06:29;;;;;;;1.13;0.60;;;;;;;27.74;24.65;93618.66;5044110;28;20029;-76
2023/11/11 10:08:55;;;;;;;0.93;0.50;;;;;;;27.39;25.41;93605.84;5029722;28;20155;-76
2023/11/11 10:11:20;;;;;;;1.65;0.68;;;;;;;26.68;26.96;93609.09;5027050;28;20087;-76
2023/11/11 10:13:47;;;;;;;1.63;0.80;;;;;;;27.11;26.44;93607.81;5028321;28;20029;-76
2023/11/11 10:16:17;;;;;;;1.38;0.80;;;;;;;26.43;26.79;93609.06;5027374;28;20521;-78
2023/11/11 10:18:43;;;;;;;1.27;0.43;;;;;;;26.68;26.43;93601.38;5029319;28;20112;-76
2023/11/11 10:21:09;;;;;;;1.02;0.50;;;;;;;26.92;26.59;93599.88;5027580;28;20064;-78
2023/11/11 10:23:36;;;;;;;1.30;0.75;;;;;;;25.22;28.67;93622.28;5012243;28;20417;-77
2023/11/11 10:26:03;;;;;;;1.00;0.57;;;;;;;23.33;31.49;93598.31;5015749;28;20035;-76
2023/11/11 10:28:30;;;;;;;1.52;0.50;;;;;;;23.85;30.27;93620.81;5014168;28;20104;-77
2023/11/11 10:31:05;;;;;;;1.20;0.52;;;;;;;25.10;28.83;93568.53;5027349;28;20034;-78
2023/11/11 10:33:30;;;;;;;0.82;0.50;;;;;;;26.29;27.60;93569.16;5031112;28;20109;-77
2023/11/11 10:35:55;;;;;;;1.05;0.65;;;;;;;25.13;28.52;93595.53;5028924;28;20108;-77
2023/11/11 10:38:21;;;;;;;1.38;0.65;;;;;;;23.69;30.13;93650.88;5012273;28;20026;-77
2023/11/11 10:40:46;;;;;;;1.05;0.60;;;;;;;22.55;32.24;93588.47;5024687;28;20049;-77
2023/11/11 10:43:12;;;;;;;3.10;0.50;;;;;;;21.00;34.63;93594.91;5016512;28;20064;-77
2023/11/11 10:45:37;;;;;;;1.05;0.60;;;;;;;19.96;36.73;93594.91;5020514;28;20022;-76
2023/11/11 10:48:03;;;;;;;0.52;0.40;;;;;;;19.39;37.60;93597.72;5011849;28;20503;-76
2023/11/11 10:50:30;;;;;;;1.10;0.60;;;;;;;20.70;35.75;93593.16;5042305;28;20068;-76
2023/11/11 10:52:56;;;;;;;0.40;0.40;;;;;;;21.42;34.18;93579.84;5040442;28;20060;-77
2023/11/11 10:55:26;;;;;;;2.30;0.63;;;;;;;20.10;36.68;93569.31;5043452;28;20079;-76
2023/11/11 10:57:51;;;;;;;0.77;0.60;;;;;;;19.63;37.89;93577.41;5027151;28;20021;-76
2023/11/11 11:00:20;;;;;;;3.15;1.00;;;;;;;19.19;39.19;93578.72;5028635;28;20565;-76
2023/11/11 11:02:49;;;;;;;3.15;1.13;;;;;;;18.90;39.92;93567.16;5010895;28;20029;-76
2023/11/11 11:05:25;;;;;;;1.27;0.60;;;;;;;19.47;39.26;93551.25;5019769;28;20052;-76
2023/11/11 11:07:55;;;;;;;1.05;0.60;;;;;;;19.74;38.05;93557.72;5025310;28;20113;-78
2023/11/11 11:10:30;;;;;;;2.65;0.90;;;;;;;22.19;34.75;93566.66;5026463;28;20388;-78
2023/11/11 11:12:59;;;;;;;2.20;0.93;;;;;;;23.21;32.40;93559.94;5030568;28;20026;-77
2023/11/11 11:15:26;;;;;;;2.35;1.13;;;;;;;24.78;30.52;93557.88;5006788;28;20029;-78
2023/11/11 11:17:52;;;;;;;1.63;0.90;;;;;;;26.90;26.85;93556.69;5007286;28;20459;-77
2023/11/11 11:20:26;;;;;;;2.53;0.90;;;;;;;23.56;31.16;93550.75;5038525;28;20049;-76
2023/11/11 11:22:58;;;;;;;2.60;1.20;;;;;;;23.54;32.05;93536.53;5039410;28;20473;-77
2023/11/11 11:25:33;;;;;;;3.13;0.80;;;;;;;22.92;32.69;93531.94;5039112;28;20069;-78
2023/11/11 11:28:11;;;;;;;2.03;0.85;;;;;;;23.65;31.30;93540.34;5014609;28;20034;-77